Murrells Inlet, SC

6:54 PM EDT on June 24, 2017 (GMT -0400)
Crazy Sister Marina, Murrells Inlet, SC | | Change Station
Active Advisory: Beach Hazard Statement

Elev 15 ft 33.56 °N, 79.03 °W | Updated 3 seconds ago

Clear
Clear
83.9 °F
Feels Like 94 °F
N
11.0
Wind Variable Wind from South
Gusts 17.0 mph

Today
High -- | Low -- °F
--% Chance of Precip.
Yesterday
High -- | Low -- °F
Precip. -- in
Pressure 29.95 in
Visibility -9999.0 miles
Clouds Clear
Heat Index 94 °F
Dew Point 77 °F
Humidity 80%
Rainfall 0.00 in
Snow Depth Not available.
6:07 AM 8:29 PM
New Moon, 1% visible
METAR KMYR 242156Z AUTO 20017G23KT CLR 30/26 A2995 RMK AO2 PK WND 19027/2115 SLP140 T03000256 PWINO $
Pressure 29.95 in
Visibility -9999.0 miles
Clouds Clear
Heat Index 94 °F
Dew Point 77 °F
Humidity 80%
Rainfall 0.00 in
Snow Depth Not available.
6:07 AM 8:29 PM
New Moon, 1% visible
METAR KMYR 242156Z AUTO 20017G23KT CLR 30/26 A2995 RMK AO2 PK WND 19027/2115 SLP140 T03000256 PWINO $

Get Your Daily Forecast Email!

Thanks for signing up!

Be on the lookout for a verification email in your inbox.

You'll start receiving severe weather alerts in your inbox..

×

10-Day Weather Forecast

Almanac

Astronomy

Jun. 24, 2017 Rise Set
Actual Time
Civil Twilight
Nautical Twilight
Astronomical Twilight
Moon
Length of Visible Light
Length of Day
Tomorrow will be .
, % of the Moon is Illuminated

Today's Extremes

State Highs State Lows

Community

WunderPhotos

Category 6

Welcome to Category 6. This is the collective home for Weather Underground's featured writeups by Dr. Jeff Masters (right), Bob Henson (left), Chris Burt, and other regular contributors.

Nearby

Air Quality

  Air Quality AQ Index Pollutant
Not available.

Snow Depth

Station Depth Elevation

Earthquake Activity

City Distance Mag. Time & Date
Minimum magnitude displayed is 2.5.

Coastal Water Temperatures

Place Temperature

Stations

Nearby Weather Stations

Station Location Temp. Windchill Dew Point Humidity Wind Precip. Elev Updated Type
                   

Watches & Warnings

Beach Hazard Statement
Issued: 4:38 AM EDT Jun. 24, 2017 – National Weather Service

... Beach hazards statement remains in effect through this evening...

The National Weather Service in Wilmington has issued a beach
hazards statement... which is in effect through this evening.

South surface winds 15 to 25 mph and gusty combined with southeasterly
waves, will produce a strong longshore current today. These strong
currents will affect the east facing beaches of Pender... New Hanover...
Horry and Georgetown counties.


Precautionary/preparedness actions...

A beach hazards statement is issued when threats such as rip
currents, longshore currents, and other hazards create life-
threatening conditions in the surf zone. Caution should be used when
in or near the water.


43